Chesapeake — WDD3041 — position and weather

sailwx.info

Track history (hours):
 
Tides and Currents Weather Stations Pressure Air Temp Water Temp Dewpoint Dewpoint Depression Visibility Wind Speed Wind Dir Waves Ship Positions

Chesapeake

Owner: Vane Line Bunkering, Baltimore, MD. More information available from US FCC via Universal Licensing System and Coast Guard Vessel Documentation Center.

Last reported at 2015-Jul-02 00:33 UTC. Time now 2015-Jul-02 00:57 UTC.
Position N 39°40' W 075°31'.

Length 34 m; draft 16 m.

Type: Tug. MMSI: 367123040.

Date/timePositionNaut miles runAvg speedWind from/ knotsBaromVisibWave heightAir tempDewpointWater temp
2015-Jul-02 00:33N 39°40' W 075°31'9 9.3
2015-Jul-01 23:33N 39°31' W 075°33'9 9.2
2015-Jul-01 22:33N 39°23' W 075°28'9 9.0
2015-Jul-01 21:33N 39°16' W 075°20'9 9.1
2015-Jul-01 20:33N 39°08' W 075°14'10 9.3
2015-Jul-01 19:32N 38°60' W 075°08'8 8.7
2015-Jul-01 18:33N 38°52' W 075°04'7 7.1
2015-Jul-01 17:33N 38°49' W 074°56'65 9.2
2015-Jul-01 10:33N 39°39' W 074°04'10 9.7
2015-Jul-01 09:33N 39°48' W 073°59'28 9.5
2015-Jul-01 06:33N 40°16' W 073°55'12 9.8
2015-Jul-01 05:17N 40°29' W 073°54'810.4
2015-Jul-01 04:33N 40°33' W 074°02'1110.5
2015-Jul-01 03:33N 40°44' W 074°01'9 9.4
2015-Jul-01 02:33N 40°52' W 073°56'  
2015-Jun-28 18:34N 40°51' W 073°57'6 6.5
2015-Jun-28 17:34N 40°45' W 074°01'7 6.5
2015-Jun-28 16:33N 40°39' W 074°03'3 2.9
2015-Jun-28 15:33N 40°36' W 074°03'2 2.0
2015-Jun-28 14:33N 40°34' W 074°02'43 5.1
2015-Jun-28 06:13N 39°52' W 073°57'5 6.9
2015-Jun-28 05:33N 39°47' W 073°58'6 6.1
2015-Jun-28 04:33N 39°42' W 074°02'6 6.1
2015-Jun-28 03:32N 39°36' W 074°05'6 6.0
2015-Jun-28 02:33N 39°31' W 074°08'53 5.9
2015-Jun-27 17:33N 38°50' W 074°52'6 6.3
2015-Jun-27 16:33N 38°48' W 074°60'7 6.7
2015-Jun-27 15:33N 38°53' W 075°05'9 8.2
2015-Jun-27 14:29N 39°02' W 075°09'9 8.3
2015-Jun-27 13:22N 39°10' W 075°15'37 6.3
2015-Jun-27 07:33N 39°44' W 075°30'10 9.9
2015-Jun-27 06:33N 39°51' W 075°20'3 3.3
2015-Jun-27 05:34N 39°51' W 075°16'4 3.7
2015-Jun-27 04:33N 39°54' W 075°12'0 0.0
2015-Jun-27 03:31N 39°54' W 075°12'0 0.0
2015-Jun-27 02:31N 39°54' W 075°12'0 0.0
2015-Jun-27 01:32N 39°54' W 075°12'0 0.0
2015-Jun-27 00:31N 39°54' W 075°12'0 0.0
2015-Jun-26 23:32N 39°54' W 075°12'0 0.0
2015-Jun-26 22:33N 39°54' W 075°12'3 2.6
2015-Jun-26 21:33N 39°52' W 075°14'1 1.4
2015-Jun-26 20:32N 39°51' W 075°16'4 4.4
2015-Jun-26 19:33N 39°55' W 075°13'0 0.0
2015-Jun-26 18:33N 39°55' W 075°13'0 0.0
2015-Jun-26 17:28N 39°55' W 075°13'0 0.0
2015-Jun-26 16:32N 39°55' W 075°13'1 1.1
2015-Jun-26 15:33N 39°54' W 075°12'0 0.0
2015-Jun-26 14:31N 39°54' W 075°12'0 0.0
2015-Jun-26 13:32N 39°54' W 075°12'0 0.0
2015-Jun-26 12:32N 39°54' W 075°12'0 0.0
2015-Jun-26 11:33N 39°54' W 075°12'0 0.0
2015-Jun-26 10:31N 39°54' W 075°12'0 0.0
2015-Jun-26 09:31N 39°54' W 075°12'0 0.0
2015-Jun-26 08:32N 39°54' W 075°12'0 0.0
2015-Jun-26 07:33N 39°54' W 075°12'0 0.0
2015-Jun-26 06:33N 39°54' W 075°12'1 1.1
2015-Jun-26 05:33N 39°55' W 075°13'2 2.5
2015-Jun-26 04:33N 39°52' W 075°13'1 1.0
2015-Jun-26 03:31N 39°51' W 075°14'0 0.1
2015-Jun-26 02:32N 39°51' W 075°14'0 0.2
2015-Jun-26 01:33N 39°52' W 075°14'0 0.0
2015-Jun-26 00:30N 39°52' W 075°14'0 0.0
2015-Jun-25 23:33N 39°52' W 075°14'0 0.0
2015-Jun-25 22:33N 39°52' W 075°14'0 0.0
2015-Jun-25 21:33N 39°52' W 075°14'4 3.9
2015-Jun-25 20:33N 39°51' W 075°19'9 9.0
2015-Jun-25 19:33N 39°46' W 075°28'52 6.5
2015-Jun-25 11:33N 38°57' W 075°06'5 5.0
2015-Jun-25 10:33N 38°52' W 075°03'6 6.2
2015-Jun-25 09:33N 38°47' W 074°60'  
Track history (hours):
 
Tides and Currents Weather Stations Pressure Air Temp Water Temp Dewpoint Dewpoint Depression Visibility Wind Speed Wind Dir Waves Ship Positions

Chesapeake

Owner: Vane Line Bunkering, Baltimore, MD. More information available from US FCC via Universal Licensing System and Coast Guard Vessel Documentation Center.

Last reported at 2015-Jul-02 00:33 UTC. Time now 2015-Jul-02 00:57 UTC.
Position N 39°40' W 075°31'.

Length 34 m; draft 16 m.

Type: Tug. MMSI: 367123040.

Date/timePositionNaut miles runAvg speedWind from/ knotsBaromVisibWave heightAir tempDewpointWater temp
2015-Jul-02 00:33N 39°40' W 075°31'9 9.3
2015-Jul-01 23:33N 39°31' W 075°33'9 9.2
2015-Jul-01 22:33N 39°23' W 075°28'9 9.0
2015-Jul-01 21:33N 39°16' W 075°20'9 9.1
2015-Jul-01 20:33N 39°08' W 075°14'10 9.3
2015-Jul-01 19:32N 38°60' W 075°08'8 8.7
2015-Jul-01 18:33N 38°52' W 075°04'7 7.1
2015-Jul-01 17:33N 38°49' W 074°56'65 9.2
2015-Jul-01 10:33N 39°39' W 074°04'10 9.7
2015-Jul-01 09:33N 39°48' W 073°59'28 9.5
2015-Jul-01 06:33N 40°16' W 073°55'12 9.8
2015-Jul-01 05:17N 40°29' W 073°54'810.4
2015-Jul-01 04:33N 40°33' W 074°02'1110.5
2015-Jul-01 03:33N 40°44' W 074°01'9 9.4
2015-Jul-01 02:33N 40°52' W 073°56'  
2015-Jun-28 18:34N 40°51' W 073°57'6 6.5
2015-Jun-28 17:34N 40°45' W 074°01'7 6.5
2015-Jun-28 16:33N 40°39' W 074°03'3 2.9
2015-Jun-28 15:33N 40°36' W 074°03'2 2.0
2015-Jun-28 14:33N 40°34' W 074°02'43 5.1
2015-Jun-28 06:13N 39°52' W 073°57'5 6.9
2015-Jun-28 05:33N 39°47' W 073°58'6 6.1
2015-Jun-28 04:33N 39°42' W 074°02'6 6.1
2015-Jun-28 03:32N 39°36' W 074°05'6 6.0
2015-Jun-28 02:33N 39°31' W 074°08'53 5.9
2015-Jun-27 17:33N 38°50' W 074°52'6 6.3
2015-Jun-27 16:33N 38°48' W 074°60'7 6.7
2015-Jun-27 15:33N 38°53' W 075°05'9 8.2
2015-Jun-27 14:29N 39°02' W 075°09'9 8.3
2015-Jun-27 13:22N 39°10' W 075°15'37 6.3
2015-Jun-27 07:33N 39°44' W 075°30'10 9.9
2015-Jun-27 06:33N 39°51' W 075°20'3 3.3
2015-Jun-27 05:34N 39°51' W 075°16'4 3.7
2015-Jun-27 04:33N 39°54' W 075°12'0 0.0
2015-Jun-27 03:31N 39°54' W 075°12'0 0.0
2015-Jun-27 02:31N 39°54' W 075°12'0 0.0
2015-Jun-27 01:32N 39°54' W 075°12'0 0.0
2015-Jun-27 00:31N 39°54' W 075°12'0 0.0
2015-Jun-26 23:32N 39°54' W 075°12'0 0.0
2015-Jun-26 22:33N 39°54' W 075°12'3 2.6
2015-Jun-26 21:33N 39°52' W 075°14'1 1.4
2015-Jun-26 20:32N 39°51' W 075°16'4 4.4
2015-Jun-26 19:33N 39°55' W 075°13'0 0.0
2015-Jun-26 18:33N 39°55' W 075°13'0 0.0
2015-Jun-26 17:28N 39°55' W 075°13'0 0.0
2015-Jun-26 16:32N 39°55' W 075°13'1 1.1
2015-Jun-26 15:33N 39°54' W 075°12'0 0.0
2015-Jun-26 14:31N 39°54' W 075°12'0 0.0
2015-Jun-26 13:32N 39°54' W 075°12'0 0.0
2015-Jun-26 12:32N 39°54' W 075°12'0 0.0
2015-Jun-26 11:33N 39°54' W 075°12'0 0.0
2015-Jun-26 10:31N 39°54' W 075°12'0 0.0
2015-Jun-26 09:31N 39°54' W 075°12'0 0.0
2015-Jun-26 08:32N 39°54' W 075°12'0 0.0
2015-Jun-26 07:33N 39°54' W 075°12'0 0.0
2015-Jun-26 06:33N 39°54' W 075°12'1 1.1
2015-Jun-26 05:33N 39°55' W 075°13'2 2.5
2015-Jun-26 04:33N 39°52' W 075°13'1 1.0
2015-Jun-26 03:31N 39°51' W 075°14'0 0.1
2015-Jun-26 02:32N 39°51' W 075°14'0 0.2
2015-Jun-26 01:33N 39°52' W 075°14'0 0.0
2015-Jun-26 00:30N 39°52' W 075°14'0 0.0
2015-Jun-25 23:33N 39°52' W 075°14'0 0.0
2015-Jun-25 22:33N 39°52' W 075°14'0 0.0
2015-Jun-25 21:33N 39°52' W 075°14'4 3.9
2015-Jun-25 20:33N 39°51' W 075°19'9 9.0
2015-Jun-25 19:33N 39°46' W 075°28'52 6.5
2015-Jun-25 11:33N 38°57' W 075°06'5 5.0
2015-Jun-25 10:33N 38°52' W 075°03'6 6.2
2015-Jun-25 09:33N 38°47' W 074°60'  

Dump ship's entire track history